createdAt,value
2022-11-08T05:01:34.614Z,4.55
2022-11-08T05:04:37.656Z,4.63
2022-11-08T05:07:40.144Z,4.74
2022-11-08T05:10:42.843Z,4.72
2022-11-08T05:13:45.785Z,4.75
2022-11-08T05:16:48.587Z,4.82
2022-11-08T05:20:09.688Z,4.83
2022-11-08T05:23:24.482Z,4.91
2022-11-08T05:26:27.968Z,4.95
2022-11-08T05:29:30.835Z,4.91
2022-11-08T05:32:33.223Z,4.93
2022-11-08T05:35:36.291Z,4.91
2022-11-08T05:38:40.040Z,4.94
2022-11-08T05:41:42.862Z,4.99
2022-11-08T05:44:45.547Z,5.00
2022-11-08T05:47:49.546Z,5.03
2022-11-08T05:50:52.706Z,5.08
2022-11-08T05:53:55.494Z,5.15
2022-11-08T05:56:57.941Z,5.09
2022-11-08T06:00:01.688Z,5.10
2022-11-08T06:03:14.332Z,5.17
2022-11-08T06:06:19.616Z,5.18
2022-11-08T06:09:22.082Z,5.19
2022-11-08T06:12:24.854Z,5.21
2022-11-08T06:15:28.005Z,5.19
2022-11-08T06:18:32.346Z,5.20
2022-11-08T06:21:34.779Z,5.29
2022-11-08T06:24:37.531Z,5.21
2022-11-08T06:27:40.011Z,5.19
2022-11-08T06:30:43.294Z,5.27
2022-11-08T06:33:45.919Z,5.28
2022-11-08T06:36:48.677Z,5.34
2022-11-08T06:39:51.263Z,5.37
2022-11-08T06:42:54.076Z,5.43
2022-11-08T06:46:00.367Z,5.52
2022-11-08T06:49:03.202Z,5.58
2022-11-08T06:52:07.389Z,5.64
2022-11-08T06:55:10.175Z,5.65
2022-11-08T06:58:12.722Z,5.66
2022-11-08T07:01:15.607Z,5.66
2022-11-08T07:04:18.321Z,5.79
2022-11-08T07:07:21.168Z,5.63
2022-11-08T07:10:26.199Z,5.85
2022-11-08T07:13:29.177Z,5.87
2022-11-08T07:16:31.705Z,5.77
2022-11-08T07:19:34.493Z,5.80
2022-11-08T07:22:37.139Z,5.94
2022-11-08T07:25:40.146Z,5.86
2022-11-08T07:28:42.731Z,5.90
2022-11-08T07:31:45.652Z,5.98
2022-11-08T07:34:48.218Z,6.10
2022-11-08T07:37:51.444Z,6.00
2022-11-08T07:40:58.610Z,6.12
2022-11-08T07:44:01.488Z,6.28
2022-11-08T07:47:03.951Z,6.26
2022-11-08T07:50:07.154Z,6.21
2022-11-08T07:53:10.242Z,6.47
2022-11-08T07:56:13.093Z,6.46
2022-11-08T07:59:16.456Z,6.56
2022-11-08T08:02:19.750Z,6.36
2022-11-08T08:05:22.550Z,6.59
2022-11-08T08:08:25.071Z,6.58
2022-11-08T08:11:33.297Z,6.74
2022-11-08T08:14:37.140Z,6.76
2022-11-08T08:17:39.906Z,6.93
2022-11-08T08:20:42.415Z,7.01
2022-11-08T08:23:45.191Z,6.94
2022-11-08T08:26:47.663Z,7.07
2022-11-08T08:29:50.463Z,6.99
2022-11-08T08:33:26.354Z,7.10
2022-11-08T08:36:23.364Z,7.15
2022-11-08T08:39:25.863Z,7.19
2022-11-08T08:42:28.953Z,7.25
2022-11-08T08:45:33.041Z,7.24
2022-11-08T08:48:38.480Z,7.29
2022-11-08T08:51:40.987Z,7.52
2022-11-08T08:54:43.742Z,7.39
2022-11-08T08:57:47.682Z,7.15
2022-11-08T09:04:14.001Z,7.33
2022-11-08T09:07:16.920Z,7.48
2022-11-08T09:10:19.547Z,7.63
2022-11-08T09:13:23.663Z,7.77
2022-11-08T09:16:26.107Z,7.91
2022-11-08T09:19:28.881Z,8.00
2022-11-08T09:22:34.082Z,8.11
2022-11-08T09:25:37.005Z,8.15
2022-11-08T09:28:39.546Z,7.85
2022-11-08T09:31:42.369Z,7.95
2022-11-08T09:34:45.262Z,8.27
2022-11-08T09:37:49.845Z,8.38
2022-11-08T09:41:11.553Z,8.60
2022-11-08T09:44:53.307Z,8.56
2022-11-08T09:48:00.149Z,8.45
2022-11-08T09:51:09.903Z,8.52
2022-11-08T09:54:25.140Z,8.38
2022-11-08T09:57:35.422Z,8.54
2022-11-08T10:00:40.581Z,8.44
2022-11-08T10:03:48.476Z,8.50
2022-11-08T10:07:25.351Z,8.71
2022-11-08T10:10:36.036Z,8.72
2022-11-08T10:13:56.780Z,8.90
2022-11-08T10:17:11.760Z,8.96
2022-11-08T10:20:30.238Z,9.27
2022-11-08T10:23:50.798Z,9.17
2022-11-08T10:26:57.885Z,9.22
2022-11-08T10:30:05.257Z,9.15
2022-11-08T10:33:27.904Z,9.12
2022-11-08T10:36:38.310Z,9.21
2022-11-08T10:40:11.102Z,9.23
2022-11-08T10:43:29.213Z,9.37
2022-11-08T10:46:42.609Z,9.69
2022-11-08T10:49:45.523Z,10.12
2022-11-08T10:53:00.270Z,10.48
2022-11-08T10:56:06.098Z,10.72
2022-11-08T10:59:29.741Z,10.78
2022-11-08T11:02:35.035Z,11.22
2022-11-08T11:05:42.207Z,11.55
2022-11-08T11:08:55.497Z,11.73
2022-11-08T11:12:00.427Z,11.52
2022-11-08T11:15:03.867Z,11.65
2022-11-08T11:18:20.114Z,12.16
2022-11-08T11:21:24.285Z,12.07
2022-11-08T11:24:27.237Z,12.46
2022-11-08T11:27:34.951Z,12.88
2022-11-08T11:30:37.658Z,13.28
2022-11-08T11:33:46.323Z,13.33
2022-11-08T11:36:55.741Z,13.92
2022-11-08T11:40:02.301Z,14.41
2022-11-08T11:43:11.203Z,15.20
2022-11-08T11:46:23.529Z,15.65
2022-11-08T11:49:29.164Z,16.01
2022-11-08T11:52:31.959Z,16.80
2022-11-08T11:55:40.369Z,17.29
2022-11-08T11:58:49.317Z,18.18
2022-11-08T12:02:21.942Z,19.12
2022-11-08T12:05:30.004Z,19.77
2022-11-08T12:09:02.734Z,18.86
2022-11-08T12:12:17.598Z,19.79
2022-11-08T12:15:35.876Z,20.64
2022-11-08T12:18:52.803Z,20.27
2022-11-08T12:22:23.767Z,21.20
2022-11-08T12:25:41.736Z,21.88
2022-11-08T12:29:25.713Z,21.79
2022-11-08T12:32:46.701Z,20.98
2022-11-08T12:36:11.192Z,20.61
2022-11-08T12:39:30.968Z,19.73
2022-11-08T12:42:43.143Z,19.25
2022-11-08T12:46:03.765Z,18.97
2022-11-08T12:49:24.535Z,18.00
2022-11-08T12:52:43.765Z,16.80
2022-11-08T12:55:48.469Z,15.48
2022-11-08T12:58:53.740Z,14.96
2022-11-08T13:01:58.465Z,14.48
2022-11-08T13:05:23.920Z,13.95
2022-11-08T13:08:52.941Z,14.03
2022-11-08T13:11:55.739Z,13.93
2022-11-08T13:15:02.822Z,13.81
2022-11-08T13:18:06.073Z,13.70
2022-11-08T13:21:27.529Z,13.47
2022-11-08T13:24:49.047Z,13.51
2022-11-08T13:27:51.699Z,13.60
2022-11-08T13:31:02.233Z,13.41
2022-11-08T13:34:16.881Z,13.37
2022-11-08T13:37:41.797Z,13.50
2022-11-08T13:41:22.772Z,13.60
2022-11-08T13:44:56.340Z,13.70
2022-11-08T13:48:28.865Z,13.76
2022-11-08T13:51:36.860Z,13.67
2022-11-08T13:54:51.430Z,13.37
2022-11-08T13:58:03.613Z,12.91
2022-11-08T14:01:18.411Z,12.79
2022-11-08T14:04:38.726Z,12.63
2022-11-08T14:07:47.987Z,12.54
2022-11-08T14:10:56.667Z,12.42
2022-11-08T14:14:08.397Z,12.05
2022-11-08T14:17:46.752Z,12.02
2022-11-08T14:20:50.164Z,11.92
2022-11-08T14:23:53.591Z,11.77
2022-11-08T14:26:56.494Z,11.66
2022-11-08T14:30:00.368Z,11.51
2022-11-08T14:33:24.056Z,11.12
2022-11-08T14:36:29.626Z,11.05
2022-11-08T14:39:35.557Z,10.75
2022-11-08T14:42:44.655Z,10.59
2022-11-08T14:45:47.982Z,10.48
2022-11-08T14:48:59.752Z,10.39
2022-11-08T14:52:23.359Z,10.29
2022-11-08T14:55:26.349Z,10.06
2022-11-08T14:58:29.859Z,10.01
2022-11-08T15:01:34.945Z,9.97
2022-11-08T15:04:40.214Z,9.91
2022-11-08T15:07:46.652Z,9.82
2022-11-08T15:10:59.452Z,9.67
2022-11-08T15:14:05.642Z,9.48
2022-11-08T15:17:30.554Z,9.42
2022-11-08T15:20:33.998Z,9.24
2022-11-08T15:23:47.716Z,9.15
2022-11-08T15:27:12.514Z,9.22
2022-11-08T15:30:30.663Z,9.17
2022-11-08T15:33:36.940Z,9.15
2022-11-08T15:36:39.723Z,9.05
2022-11-08T15:39:44.297Z,8.99
2022-11-08T15:42:49.713Z,8.80
2022-11-08T15:45:53.818Z,8.75
2022-11-08T15:48:58.321Z,8.70
2022-11-08T15:52:01.805Z,8.68
2022-11-08T15:55:05.244Z,8.57
2022-11-08T15:58:28.307Z,8.55
2022-11-08T16:01:31.130Z,8.53
2022-11-08T16:04:34.267Z,8.56
2022-11-08T16:07:36.921Z,8.58
2022-11-08T16:10:44.882Z,8.56
2022-11-08T16:13:49.114Z,8.53
2022-11-08T16:16:52.250Z,8.57
2022-11-08T16:19:55.065Z,8.56
2022-11-08T16:23:00.477Z,8.59
2022-11-08T16:26:05.883Z,8.58
2022-11-08T16:29:20.854Z,8.58
2022-11-08T16:32:23.532Z,8.52
2022-11-08T16:35:26.960Z,8.44
2022-11-08T16:38:38.671Z,8.32
2022-11-08T16:41:42.865Z,8.28
2022-11-08T16:44:46.249Z,8.33
2022-11-08T16:47:50.917Z,8.36
2022-11-08T16:51:02.366Z,8.41
2022-11-08T16:54:17.676Z,8.40
2022-11-08T16:57:34.084Z,8.41
2022-11-08T17:00:46.456Z,8.40
